Time;durP1;ratioP1;P1;durP2;ratioP2;P2;SDS_P1;SDS_P2;PMS_P1;PMS_P2;Temp;Humidity;BMP_temperature;BMP_pressure;BME280_temperature;BME280_humidity;BME280_pressure;Samples;Min_cycle;Max_cycle;Signal;HPM_P1;HPM_P2
2023/09/04 00:01:03;;;;;;;8.33;7.33;;;12.40;92.40;;;;;;5016158;28;20426;-70
2023/09/04 00:03:29;;;;;;;8.43;7.50;;;12.40;92.50;;;;;;5020731;28;20510;-70
2023/09/04 00:05:55;;;;;;;8.70;7.80;;;12.40;92.50;;;;;;5018386;28;20041;-70
2023/09/04 00:08:21;;;;;;;8.87;7.97;;;12.40;92.60;;;;;;5018872;28;20593;-70
2023/09/04 00:10:47;;;;;;;9.87;8.23;;;12.40;92.70;;;;;;5018739;28;20288;-70
2023/09/04 00:13:13;;;;;;;8.87;7.83;;;12.50;92.80;;;;;;5012759;28;20280;-70
2023/09/04 00:15:39;;;;;;;8.43;7.43;;;12.40;92.80;;;;;;5012469;28;20290;-70
2023/09/04 00:18:06;;;;;;;9.13;7.97;;;12.40;92.80;;;;;;5020256;28;20057;-70
2023/09/04 00:20:32;;;;;;;9.60;8.60;;;12.40;92.80;;;;;;5012415;28;20312;-70
2023/09/04 00:22:58;;;;;;;10.70;8.40;;;12.40;92.80;;;;;;5008956;28;20280;-70
2023/09/04 00:25:24;;;;;;;9.87;8.77;;;12.40;93.10;;;;;;5012772;28;20041;-70
2023/09/04 00:27:49;;;;;;;10.70;9.53;;;12.40;93.30;;;;;;5008721;28;20124;-70
2023/09/04 00:30:15;;;;;;;9.97;8.63;;;12.40;93.30;;;;;;5013273;28;20429;-70
2023/09/04 00:32:41;;;;;;;10.53;9.43;;;12.40;93.30;;;;;;5012072;28;20045;-70
2023/09/04 00:35:08;;;;;;;11.10;9.40;;;12.40;93.40;;;;;;5012058;28;20077;-70
2023/09/04 00:37:33;;;;;;;10.43;9.33;;;12.40;93.50;;;;;;5011204;28;20376;-70
2023/09/04 00:39:59;;;;;;;18.40;16.77;;;12.40;93.60;;;;;;5015137;28;20303;-70
2023/09/04 00:42:29;;;;;;;12.37;11.07;;;12.50;93.80;;;;;;5009671;28;20030;-70
2023/09/04 00:44:55;;;;;;;13.13;10.63;;;12.50;93.90;;;;;;5012311;28;20034;-70
2023/09/04 00:47:23;;;;;;;13.73;12.33;;;12.50;94.10;;;;;;5012797;28;20338;-70
2023/09/04 00:49:51;;;;;;;15.27;13.67;;;12.50;94.20;;;;;;4996198;28;20545;-70
2023/09/04 00:52:17;;;;;;;14.87;13.33;;;12.60;94.50;;;;;;5012446;28;20767;-70
2023/09/04 00:54:43;;;;;;;14.87;12.23;;;12.60;94.60;;;;;;4995640;28;20293;-70
2023/09/04 00:57:10;;;;;;;14.43;12.27;;;12.60;94.90;;;;;;5010505;28;20510;-70
2023/09/04 00:59:36;;;;;;;14.03;12.17;;;12.70;95.00;;;;;;5012756;28;20316;-70
2023/09/04 01:02:04;;;;;;;14.97;13.37;;;12.70;94.90;;;;;;5009787;28;20289;-70
2023/09/04 01:04:30;;;;;;;14.10;12.70;;;12.70;95.00;;;;;;5011133;28;20042;-70
2023/09/04 01:06:57;;;;;;;14.77;11.70;;;12.70;95.00;;;;;;5010929;28;20284;-70
2023/09/04 01:09:23;;;;;;;11.80;10.43;;;12.70;95.20;;;;;;5014464;28;20076;-70
2023/09/04 01:12:12;;;;;;;12.77;11.17;;;12.70;95.50;;;;;;5011937;28;20294;-70
2023/09/04 01:14:41;;;;;;;12.50;10.30;;;12.70;95.40;;;;;;5011001;28;20661;-70
2023/09/04 01:17:07;;;;;;;13.90;12.27;;;12.60;95.50;;;;;;5000601;28;20301;-70
2023/09/04 01:19:34;;;;;;;13.30;10.53;;;12.60;95.50;;;;;;5014708;28;21055;-70
2023/09/04 01:21:59;;;;;;;12.43;10.57;;;12.60;95.70;;;;;;5013132;28;20320;-70
2023/09/04 01:24:25;;;;;;;12.77;10.83;;;12.60;96.00;;;;;;5013821;28;20320;-70
2023/09/04 01:27:05;;;;;;;12.77;10.10;;;12.60;96.30;;;;;;5000568;28;20045;-70
2023/09/04 01:29:47;;;;;;;13.53;9.77;;;12.60;96.10;;;;;;5008132;28;20289;-70
2023/09/04 01:32:44;;;;;;;14.33;9.80;;;12.50;96.20;;;;;;5014530;28;20715;-70
2023/09/04 01:35:12;;;;;;;13.07;10.40;;;12.50;96.00;;;;;;5017669;28;20341;-70
2023/09/04 01:37:39;;;;;;;11.43;9.53;;;12.50;96.10;;;;;;5008315;28;20292;-70
2023/09/04 01:40:05;;;;;;;11.73;9.27;;;12.40;96.00;;;;;;5025826;28;20316;-70
2023/09/04 01:42:31;;;;;;;11.90;10.00;;;12.40;96.10;;;;;;5021687;28;20284;-70
2023/09/04 01:44:57;;;;;;;11.63;10.40;;;12.40;96.20;;;;;;5011565;28;20861;-70
2023/09/04 01:47:24;;;;;;;12.27;9.63;;;12.40;96.20;;;;;;5028358;28;20075;-70
2023/09/04 01:49:49;;;;;;;11.83;9.97;;;12.40;96.40;;;;;;5022245;28;20613;-70
2023/09/04 01:52:15;;;;;;;9.93;8.93;;;12.40;96.70;;;;;;5017748;28;20299;-70
2023/09/04 01:54:41;;;;;;;11.23;9.33;;;12.40;96.70;;;;;;5002063;28;20050;-70
2023/09/04 01:57:06;;;;;;;11.87;9.47;;;12.40;96.80;;;;;;5016889;28;20068;-70
2023/09/04 01:59:35;;;;;;;11.77;9.03;;;12.40;96.80;;;;;;5020343;28;20042;-70
2023/09/04 02:02:00;;;;;;;10.73;9.63;;;12.40;96.90;;;;;;5011546;28;20033;-70
2023/09/04 02:04:26;;;;;;;11.03;9.07;;;12.40;96.70;;;;;;5013532;28;20621;-70
2023/09/04 02:06:52;;;;;;;10.47;9.40;;;12.40;96.90;;;;;;5019252;28;20049;-70
2023/09/04 02:09:17;;;;;;;9.60;8.60;;;12.40;97.00;;;;;;5004372;28;20041;-71
2023/09/04 02:11:43;;;;;;;9.37;8.13;;;12.30;97.00;;;;;;5011631;28;20059;-70
2023/09/04 02:14:09;;;;;;;11.07;9.87;;;12.30;97.00;;;;;;4994566;28;20057;-70
2023/09/04 02:16:35;;;;;;;10.23;8.63;;;12.30;97.00;;;;;;5010041;28;20054;-70
2023/09/04 02:19:01;;;;;;;10.47;9.03;;;12.30;96.90;;;;;;5018468;28;20045;-70
2023/09/04 02:21:27;;;;;;;9.97;8.97;;;12.20;97.00;;;;;;5013938;28;20044;-70
2023/09/04 02:23:52;;;;;;;10.63;8.90;;;12.20;97.10;;;;;;5016080;28;20593;-70
2023/09/04 02:26:18;;;;;;;10.73;8.90;;;12.20;97.10;;;;;;5008522;28;20046;-70
2023/09/04 02:28:44;;;;;;;10.30;8.83;;;12.20;97.10;;;;;;5027096;28;20045;-70
2023/09/04 02:31:11;;;;;;;10.03;8.97;;;12.20;97.20;;;;;;5005697;28;20465;-70
2023/09/04 02:33:37;;;;;;;12.03;8.83;;;12.20;97.30;;;;;;5014911;28;20117;-70
2023/09/04 02:36:03;;;;;;;10.73;9.63;;;12.10;97.40;;;;;;5011145;28;20390;-70
2023/09/04 02:38:29;;;;;;;10.17;8.73;;;12.10;97.40;;;;;;5011044;28;20075;-70
2023/09/04 02:40:54;;;;;;;10.83;8.63;;;12.10;97.50;;;;;;5009597;28;20285;-70
2023/09/04 02:43:20;;;;;;;11.17;8.50;;;12.10;97.40;;;;;;5003420;28;20061;-70
2023/09/04 02:45:47;;;;;;;10.50;9.07;;;12.10;97.30;;;;;;5011682;28;20041;-70
2023/09/04 02:48:13;;;;;;;10.43;9.33;;;12.00;97.50;;;;;;5020533;28;20067;-70
2023/09/04 02:50:40;;;;;;;9.37;7.87;;;12.00;97.40;;;;;;5011394;28;20374;-70
2023/09/04 02:53:06;;;;;;;9.73;8.73;;;12.00;97.40;;;;;;5023903;28;20053;-70
2023/09/04 02:55:31;;;;;;;9.17;8.20;;;12.00;97.40;;;;;;5010833;28;20382;-70
2023/09/04 02:57:58;;;;;;;11.97;9.00;;;11.90;97.50;;;;;;5019953;28;20045;-70
2023/09/04 03:00:23;;;;;;;10.47;9.37;;;11.90;97.60;;;;;;5013815;28;20457;-70
2023/09/04 03:02:50;;;;;;;10.60;9.50;;;11.90;97.70;;;;;;5000276;28;20292;-71
2023/09/04 03:05:16;;;;;;;10.13;9.03;;;11.90;97.60;;;;;;5008830;28;20037;-70
2023/09/04 03:07:42;;;;;;;9.50;7.83;;;11.90;97.60;;;;;;5023315;28;20280;-70
2023/09/04 03:10:08;;;;;;;10.57;8.30;;;11.90;97.70;;;;;;5027806;28;20281;-71
2023/09/04 03:12:34;;;;;;;9.90;8.37;;;11.90;97.70;;;;;;5006478;28;20345;-70
2023/09/04 03:15:03;;;;;;;9.50;8.50;;;11.80;97.70;;;;;;5012223;28;20057;-70
2023/09/04 03:17:29;;;;;;;8.73;7.83;;;11.80;97.50;;;;;;5015508;28;20041;-70
2023/09/04 03:19:56;;;;;;;10.00;7.80;;;11.70;97.50;;;;;;5011200;28;20698;-70
2023/09/04 03:22:23;;;;;;;9.23;8.23;;;11.60;97.40;;;;;;5014088;28;20280;-70
2023/09/04 03:24:49;;;;;;;10.57;8.57;;;11.60;97.50;;;;;;5013482;28;20300;-70
2023/09/04 03:27:15;;;;;;;9.87;7.93;;;11.50;97.50;;;;;;5014008;28;20284;-70
2023/09/04 03:29:42;;;;;;;8.73;7.83;;;11.50;97.60;;;;;;5011385;28;20501;-70
2023/09/04 03:32:08;;;;;;;7.83;7.00;;;11.50;97.60;;;;;;5020867;28;20284;-70
2023/09/04 03:34:34;;;;;;;9.20;8.20;;;11.40;97.60;;;;;;5013000;28;20345;-70
2023/09/04 03:36:59;;;;;;;10.87;7.87;;;11.40;97.60;;;;;;5013658;28;20118;-70
2023/09/04 03:39:26;;;;;;;9.93;7.13;;;11.30;97.60;;;;;;5011045;28;20048;-70
2023/09/04 03:41:52;;;;;;;9.13;7.90;;;11.30;97.60;;;;;;5015057;28;20167;-70
2023/09/04 03:44:18;;;;;;;8.30;7.43;;;11.30;97.70;;;;;;5013129;28;20369;-70
2023/09/04 03:46:43;;;;;;;10.47;7.97;;;11.30;97.70;;;;;;5014195;28;20146;-70
2023/09/04 03:49:09;;;;;;;8.47;7.57;;;11.30;97.70;;;;;;5017290;28;20312;-70
2023/09/04 03:51:35;;;;;;;9.20;7.17;;;11.30;97.80;;;;;;5014080;28;20041;-70
2023/09/04 03:54:03;;;;;;;8.47;7.57;;;11.20;97.70;;;;;;5009839;28;20153;-70
2023/09/04 03:56:30;;;;;;;8.83;7.27;;;11.20;97.70;;;;;;5009500;28;20045;-70
2023/09/04 03:58:57;;;;;;;9.30;7.70;;;11.20;97.80;;;;;;5021530;28;20320;-70
2023/09/04 04:01:23;;;;;;;9.03;6.97;;;11.20;97.60;;;;;;5014094;28;20776;-70
2023/09/04 04:03:50;;;;;;;9.30;7.37;;;11.10;97.60;;;;;;5019792;28;20358;-70
2023/09/04 04:06:16;;;;;;;8.80;7.70;;;11.10;97.70;;;;;;5013342;28;20346;-70
2023/09/04 04:08:43;;;;;;;8.70;7.57;;;11.10;97.80;;;;;;5011682;28;20301;-71
2023/09/04 04:11:10;;;;;;;8.33;7.43;;;11.10;97.70;;;;;;5022705;28;20298;-71
2023/09/04 04:13:35;;;;;;;8.67;7.60;;;11.00;97.60;;;;;;5012194;28;20303;-70
2023/09/04 04:16:02;;;;;;;9.03;7.03;;;11.00;97.70;;;;;;5012908;28;20292;-70
2023/09/04 04:18:29;;;;;;;8.50;7.57;;;11.00;97.70;;;;;;5012739;28;20375;-70
2023/09/04 04:20:55;;;;;;;10.17;8.10;;;11.00;97.80;;;;;;5028935;28;20295;-70
2023/09/04 04:23:21;;;;;;;9.30;7.90;;;11.00;97.80;;;;;;5014237;28;20276;-70
2023/09/04 04:25:51;;;;;;;9.43;7.63;;;11.00;98.00;;;;;;5020112;28;20280;-70
2023/09/04 04:28:21;;;;;;;9.33;7.40;;;11.00;97.90;;;;;;5009052;28;20354;-70
2023/09/04 04:30:46;;;;;;;8.60;7.57;;;11.00;97.90;;;;;;5019489;28;20399;-70
2023/09/04 04:33:12;;;;;;;9.20;7.63;;;10.90;98.00;;;;;;5010553;28;20703;-70
2023/09/04 04:35:39;;;;;;;10.87;7.97;;;10.90;98.00;;;;;;5018602;28;20061;-70
2023/09/04 04:38:06;;;;;;;9.90;6.90;;;10.90;98.00;;;;;;5007812;28;20288;-70
2023/09/04 04:40:31;;;;;;;11.87;7.87;;;11.00;98.10;;;;;;5010429;28;20319;-70
2023/09/04 04:42:57;;;;;;;16.30;14.97;;;11.00;98.10;;;;;;5007805;28;20289;-70
2023/09/04 04:45:23;;;;;;;9.17;7.23;;;11.00;98.10;;;;;;5004719;28;20049;-70
2023/09/04 04:47:49;;;;;;;10.83;8.07;;;11.00;98.20;;;;;;5008148;28;20494;-70
2023/09/04 04:50:15;;;;;;;11.53;8.40;;;11.00;98.30;;;;;;5011529;28;20128;-70
2023/09/04 04:52:41;;;;;;;8.33;7.13;;;11.10;98.50;;;;;;5010741;28;20372;-71
2023/09/04 04:55:07;;;;;;;10.13;8.73;;;11.10;98.60;;;;;;5005566;28;20042;-70
2023/09/04 04:57:36;;;;;;;12.30;10.20;;;11.20;98.50;;;;;;5011086;28;20042;-70
2023/09/04 05:00:06;;;;;;;11.80;9.90;;;11.20;98.70;;;;;;5011570;28;20494;-70
2023/09/04 05:02:36;;;;;;;25.17;23.33;;;11.30;98.60;;;;;;5012621;28;20287;-71
2023/09/04 05:05:03;;;;;;;16.53;15.13;;;11.30;98.80;;;;;;4995778;28;20296;-71
2023/09/04 05:07:29;;;;;;;12.07;10.07;;;11.40;98.80;;;;;;5009158;28;20598;-70
2023/09/04 05:09:56;;;;;;;14.67;13.20;;;11.40;98.80;;;;;;5012415;28;20692;-70
2023/09/04 05:12:22;;;;;;;14.43;12.17;;;11.50;98.90;;;;;;5011540;28;20292;-70
2023/09/04 05:14:48;;;;;;;13.03;10.87;;;11.50;98.80;;;;;;4995167;28;20827;-71
2023/09/04 05:17:14;;;;;;;16.93;15.43;;;11.60;99.00;;;;;;5014356;28;20363;-70
2023/09/04 05:19:40;;;;;;;20.53;18.80;;;11.60;99.00;;;;;;4997912;28;20048;-70
2023/09/04 05:22:05;;;;;;;25.23;23.33;;;11.70;99.10;;;;;;5012059;28;20083;-70
2023/09/04 05:24:31;;;;;;;35.60;33.40;;;11.70;99.10;;;;;;5011213;28;20041;-71
2023/09/04 05:26:57;;;;;;;30.70;28.60;;;11.80;99.20;;;;;;5011278;28;20466;-71
2023/09/04 05:29:23;;;;;;;22.37;20.47;;;11.80;99.10;;;;;;5015372;28;20076;-70
2023/09/04 05:31:52;;;;;;;29.40;27.30;;;11.90;99.10;;;;;;5014644;28;20509;-70
2023/09/04 05:34:19;;;;;;;23.50;21.30;;;11.90;99.10;;;;;;5011637;28;20284;-70
2023/09/04 05:36:44;;;;;;;37.23;34.80;;;11.90;99.10;;;;;;5007750;28;20776;-70
2023/09/04 05:39:10;;;;;;;37.47;35.07;;;12.00;99.20;;;;;;5011369;28;20358;-70
2023/09/04 05:41:39;;;;;;;37.27;34.83;;;12.00;99.20;;;;;;5008838;28;20046;-70
2023/09/04 05:44:05;;;;;;;33.67;31.47;;;12.10;99.20;;;;;;5012037;28;20055;-70
2023/09/04 05:46:31;;;;;;;25.63;23.87;;;12.10;99.30;;;;;;5011577;28;20292;-70
2023/09/04 05:48:57;;;;;;;33.47;31.07;;;12.10;99.20;;;;;;5011928;28;20041;-69
2023/09/04 05:51:23;;;;;;;30.37;28.20;;;12.20;99.10;;;;;;5011322;28;20288;-69
2023/09/04 05:53:49;;;;;;;35.60;33.27;;;12.20;99.20;;;;;;5012200;28;20041;-69
2023/09/04 05:56:15;;;;;;;28.83;26.80;;;12.20;99.10;;;;;;5019674;28;20370;-69
2023/09/04 05:58:46;;;;;;;34.30;32.20;;;12.20;99.10;;;;;;5015606;28;20284;-69
2023/09/04 06:01:13;;;;;;;37.23;34.70;;;12.30;99.10;;;;;;5009114;28;20039;-69
2023/09/04 06:03:39;;;;;;;32.00;29.77;;;12.30;99.30;;;;;;4994350;28;20284;-69
2023/09/04 06:06:05;;;;;;;43.50;40.93;;;12.40;99.30;;;;;;5014358;28;20283;-70
2023/09/04 06:08:33;;;;;;;28.93;26.90;;;12.40;99.30;;;;;;5006655;28;20391;-70
2023/09/04 06:10:59;;;;;;;26.63;24.67;;;12.40;99.40;;;;;;5010143;28;20278;-70
2023/09/04 06:13:24;;;;;;;35.10;32.83;;;12.50;99.50;;;;;;5011190;28;20312;-70
2023/09/04 06:15:51;;;;;;;31.87;29.67;;;12.60;99.50;;;;;;5011305;28;20440;-70
2023/09/04 06:18:17;;;;;;;34.90;32.43;;;12.60;99.50;;;;;;5004129;28;20573;-70
2023/09/04 06:20:43;;;;;;;43.27;40.57;;;12.70;99.40;;;;;;5009841;28;20386;-69
2023/09/04 06:23:08;;;;;;;30.10;28.07;;;12.80;99.30;;;;;;5007534;28;20632;-70
2023/09/04 06:25:39;;;;;;;51.00;47.93;;;12.80;99.30;;;;;;5022129;28;20283;-70
2023/09/04 06:28:06;;;;;;;39.07;36.70;;;12.90;99.10;;;;;;5011325;28;20096;-70
2023/09/04 06:30:31;;;;;;;43.37;40.77;;;13.00;99.30;;;;;;5031095;28;20330;-70
2023/09/04 06:32:57;;;;;;;53.27;49.90;;;13.00;99.20;;;;;;5019505;28;20327;-70
2023/09/04 06:35:23;;;;;;;55.50;52.47;;;13.10;99.00;;;;;;5034979;28;20049;-70
2023/09/04 06:37:50;;;;;;;44.73;42.13;;;13.20;98.90;;;;;;5009042;28;20136;-70
2023/09/04 06:40:16;;;;;;;40.33;37.87;;;13.30;98.80;;;;;;5025648;28;20113;-70
2023/09/04 06:42:41;;;;;;;45.40;42.60;;;13.40;98.70;;;;;;5025595;28;20699;-70
2023/09/04 06:45:07;;;;;;;49.53;46.70;;;13.50;98.70;;;;;;5033955;28;20287;-70
2023/09/04 06:47:33;;;;;;;48.73;46.00;;;13.60;98.60;;;;;;5001659;28;20073;-70
2023/09/04 06:50:00;;;;;;;61.47;57.73;;;13.70;98.60;;;;;;5024556;28;20295;-70
2023/09/04 06:52:26;;;;;;;72.13;68.23;;;13.80;98.50;;;;;;5007649;28;20057;-70
2023/09/04 06:54:52;;;;;;;66.97;63.30;;;14.00;98.40;;;;;;5011627;28;20368;-69
2023/09/04 06:57:17;;;;;;;12.90;10.17;;;14.10;98.40;;;;;;5013813;28;20517;-69
2023/09/04 06:59:43;;;;;;;45.30;42.40;;;14.20;98.40;;;;;;5014698;28;20060;-70
2023/09/04 07:02:09;;;;;;;68.67;64.80;;;14.30;98.00;;;;;;5015128;28;20103;-70
2023/09/04 07:04:35;;;;;;;120.23;114.00;;;14.40;97.90;;;;;;5001333;28;20167;-69
2023/09/04 07:07:00;;;;;;;142.77;135.57;;;14.50;97.90;;;;;;5014406;28;20811;-70
2023/09/04 07:09:26;;;;;;;155.07;147.30;;;14.70;98.00;;;;;;5019166;28;20413;-70
2023/09/04 07:11:52;;;;;;;154.37;146.47;;;14.80;97.80;;;;;;5016667;28;20050;-70
2023/09/04 07:14:18;;;;;;;153.97;146.13;;;14.90;98.00;;;;;;5016424;28;20053;-69
2023/09/04 07:16:43;;;;;;;164.10;155.87;;;15.10;97.60;;;;;;5022385;28;20037;-70
2023/09/04 07:19:09;;;;;;;166.57;157.87;;;15.20;97.40;;;;;;5013255;28;20047;-70
2023/09/04 07:21:36;;;;;;;152.23;144.17;;;15.30;97.30;;;;;;5008876;28;20037;-67
2023/09/04 07:24:03;;;;;;;177.47;168.33;;;15.50;97.00;;;;;;5007684;28;20525;-69
2023/09/04 07:26:29;;;;;;;141.90;134.37;;;15.60;96.80;;;;;;5026942;28;20297;-70
2023/09/04 07:28:55;;;;;;;81.90;77.30;;;15.70;96.60;;;;;;5015118;28;21046;-68
2023/09/04 07:31:21;;;;;;;131.47;124.37;;;15.90;95.90;;;;;;5035476;28;20298;-68
2023/09/04 07:33:47;;;;;;;133.67;126.83;;;16.00;95.70;;;;;;5011843;28;20824;-69
2023/09/04 07:36:13;;;;;;;184.60;175.20;;;16.10;95.60;;;;;;5020808;28;20045;-69
2023/09/04 07:38:39;;;;;;;136.00;128.83;;;16.30;95.50;;;;;;5015860;28;20357;-69
2023/09/04 07:41:05;;;;;;;165.60;157.10;;;16.40;95.20;;;;;;5026179;28;20038;-69
2023/09/04 07:43:31;;;;;;;122.87;116.40;;;16.60;94.90;;;;;;5022938;28;20057;-68
2023/09/04 07:45:58;;;;;;;133.97;126.93;;;16.70;94.00;;;;;;5024097;28;20088;-68
2023/09/04 07:48:24;;;;;;;173.47;164.43;;;16.80;93.60;;;;;;5016052;28;20288;-69
2023/09/04 07:50:52;;;;;;;168.20;159.63;;;16.90;93.60;;;;;;5019135;28;20374;-69
2023/09/04 07:53:18;;;;;;;145.43;137.70;;;17.00;93.60;;;;;;5005590;28;20045;-69
2023/09/04 07:55:43;;;;;;;126.00;119.70;;;17.20;93.10;;;;;;5026982;28;20314;-70
2023/09/04 07:58:10;;;;;;;125.97;119.60;;;17.30;92.80;;;;;;5022185;28;20056;-69
2023/09/04 08:00:36;;;;;;;144.30;137.17;;;17.50;92.50;;;;;;5012486;28;20133;-71
2023/09/04 08:03:04;;;;;;;91.00;86.27;;;17.60;91.00;;;;;;5020820;28;20289;-68
2023/09/04 08:05:29;;;;;;;99.87;94.57;;;17.70;91.10;;;;;;5016805;28;20280;-69
2023/09/04 08:07:55;;;;;;;96.10;90.77;;;17.90;91.30;;;;;;5015241;28;20648;-70
2023/09/04 08:10:21;;;;;;;101.23;95.80;;;18.00;89.90;;;;;;5010231;28;20510;-69
2023/09/04 08:12:46;;;;;;;95.90;90.90;;;18.10;89.60;;;;;;5014413;28;20038;-69
2023/09/04 08:15:12;;;;;;;105.50;99.87;;;18.20;89.60;;;;;;5014672;28;20149;-69
2023/09/04 08:17:40;;;;;;;89.87;85.07;;;18.30;89.30;;;;;;5031840;28;20049;-70
2023/09/04 08:20:07;;;;;;;70.77;66.73;;;18.50;88.80;;;;;;5014752;28;20512;-69
2023/09/04 08:22:33;;;;;;;102.67;97.27;;;18.60;88.30;;;;;;5025203;28;20284;-70
2023/09/04 08:24:59;;;;;;;104.87;99.70;;;18.70;88.00;;;;;;4998629;28;20818;-70
2023/09/04 08:27:25;;;;;;;78.80;74.67;;;18.70;87.30;;;;;;5014301;28;20502;-69
2023/09/04 08:29:51;;;;;;;83.87;79.50;;;18.80;86.40;;;;;;5016873;28;20041;-69
2023/09/04 08:32:17;;;;;;;74.03;70.13;;;18.90;86.70;;;;;;5020080;28;20505;-69
2023/09/04 08:34:42;;;;;;;89.37;84.63;;;19.00;86.30;;;;;;5014527;28;20299;-68
2023/09/04 08:37:08;;;;;;;99.20;94.20;;;19.20;85.60;;;;;;5040587;28;20114;-69
2023/09/04 08:39:34;;;;;;;77.23;73.23;;;19.30;85.30;;;;;;5014837;28;20049;-69
2023/09/04 08:42:02;;;;;;;92.43;87.60;;;19.40;84.40;;;;;;5013787;28;20045;-69
2023/09/04 08:44:30;;;;;;;78.53;74.43;;;19.50;84.50;;;;;;5013378;28;20132;-69
2023/09/04 08:46:59;;;;;;;76.27;72.17;;;19.60;83.90;;;;;;5008040;28;20111;-69
2023/09/04 08:49:26;;;;;;;76.00;71.73;;;19.70;82.80;;;;;;5013498;28;20081;-69
2023/09/04 08:51:53;;;;;;;83.30;78.87;;;19.80;82.50;;;;;;5012912;28;20409;-70
2023/09/04 08:54:19;;;;;;;76.17;71.83;;;19.90;81.30;;;;;;5019762;28;20452;-69
2023/09/04 08:56:45;;;;;;;91.37;86.17;;;20.00;81.20;;;;;;5031271;28;20539;-69
2023/09/04 08:59:11;;;;;;;81.73;77.13;;;20.10;79.90;;;;;;5005619;28;20049;-71
2023/09/04 09:01:38;;;;;;;95.90;90.57;;;20.10;80.00;;;;;;5014236;28;20072;-68
2023/09/04 09:04:05;;;;;;;80.93;76.70;;;20.20;78.40;;;;;;5031012;28;20851;-69
2023/09/04 09:06:31;;;;;;;79.33;74.93;;;20.20;77.90;;;;;;5019617;28;20056;-69
2023/09/04 09:08:58;;;;;;;84.93;80.47;;;20.30;76.90;;;;;;5013728;28;20041;-69
2023/09/04 09:11:24;;;;;;;86.07;81.57;;;20.30;76.60;;;;;;5025902;28;20045;-70
2023/09/04 09:13:50;;;;;;;71.47;67.70;;;20.30;77.20;;;;;;4997108;28;20556;-68
2023/09/04 09:16:19;;;;;;;94.33;89.23;;;20.40;77.30;;;;;;5014253;28;20080;-69
2023/09/04 09:18:47;;;;;;;122.10;115.40;;;20.50;77.10;;;;;;5013279;28;20049;-69
2023/09/04 09:21:30;;;;;;;105.83;100.17;;;20.60;75.00;;;;;;4998811;28;20402;-69
2023/09/04 09:24:18;;;;;;;87.23;82.57;;;20.70;75.90;;;;;;5032131;28;20037;-69
2023/09/04 09:26:47;;;;;;;88.83;84.20;;;20.70;74.50;;;;;;5012589;28;20049;-69
2023/09/04 09:29:13;;;;;;;98.30;93.10;;;20.80;74.90;;;;;;5017923;28;20121;-69
2023/09/04 09:31:42;;;;;;;103.27;97.77;;;20.90;75.40;;;;;;5022575;28;20053;-69
2023/09/04 09:34:09;;;;;;;87.90;83.20;;;21.00;75.10;;;;;;5013570;28;20140;-69
2023/09/04 09:36:35;;;;;;;93.73;88.47;;;21.10;73.70;;;;;;5024498;28;20544;-68
2023/09/04 09:39:02;;;;;;;102.10;96.67;;;21.20;73.60;;;;;;5012137;28;20068;-69
2023/09/04 09:41:29;;;;;;;103.57;97.93;;;21.20;73.50;;;;;;4996086;28;20041;-69
2023/09/04 09:43:55;;;;;;;110.20;104.07;;;21.30;73.00;;;;;;5012636;28;20405;-69
2023/09/04 09:46:21;;;;;;;103.70;97.97;;;21.40;73.20;;;;;;5006283;28;20038;-69
2023/09/04 09:48:47;;;;;;;117.73;111.03;;;21.50;71.90;;;;;;5003846;28;20090;-69
2023/09/04 09:51:13;;;;;;;96.77;91.77;;;21.50;72.10;;;;;;5019444;28;20041;-69
2023/09/04 09:53:51;;;;;;;96.50;91.37;;;21.60;72.30;;;;;;5016907;28;20099;-69
2023/09/04 09:56:18;;;;;;;104.00;98.60;;;21.70;72.80;;;;;;5019012;28;20107;-69
2023/09/04 09:58:48;;;;;;;105.03;99.30;;;21.90;72.50;;;;;;5019508;28;20041;-69
2023/09/04 10:01:17;;;;;;;125.17;118.20;;;22.00;71.10;;;;;;5013015;28;20819;-69
2023/09/04 10:03:44;;;;;;;163.30;154.07;;;22.10;70.20;;;;;;5013901;28;20060;-69
2023/09/04 10:06:15;;;;;;;132.67;125.37;;;22.10;70.40;;;;;;5022728;28;20080;-69
2023/09/04 10:08:47;;;;;;;113.57;107.37;;;22.20;70.60;;;;;;5010073;28;20052;-69
2023/09/04 10:11:15;;;;;;;158.03;149.17;;;22.30;70.20;;;;;;5008477;28;20041;-69
2023/09/04 10:13:55;;;;;;;125.50;118.80;;;22.40;68.70;;;;;;5009668;28;20049;-69
2023/09/04 10:16:45;;;;;;;202.17;189.83;;;22.50;69.20;;;;;;4996905;28;20505;-69
2023/09/04 10:19:13;;;;;;;128.40;121.67;;;22.60;66.90;;;;;;5019311;28;20072;-69
2023/09/04 10:21:46;;;;;;;135.97;128.20;;;22.60;68.40;;;;;;5021331;28;20086;-69
2023/09/04 10:24:14;;;;;;;152.17;144.13;;;22.70;67.70;;;;;;5010152;28;20041;-69
2023/09/04 10:26:54;;;;;;;138.43;130.90;;;22.80;66.90;;;;;;5012289;28;20673;-69
2023/09/04 10:29:24;;;;;;;138.57;130.97;;;22.90;66.30;;;;;;5011264;28;20076;-69
2023/09/04 10:31:51;;;;;;;130.73;123.40;;;22.90;66.10;;;;;;5003720;28;20041;-69
2023/09/04 10:34:17;;;;;;;134.60;126.87;;;22.90;66.10;;;;;;5011856;28;20144;-69
2023/09/04 10:36:43;;;;;;;128.93;121.73;;;22.90;66.90;;;;;;5007068;28;20136;-69
2023/09/04 10:39:09;;;;;;;136.03;128.33;;;23.00;66.90;;;;;;4995279;28;20446;-69
2023/09/04 10:41:35;;;;;;;125.90;118.90;;;23.00;66.50;;;;;;5017382;28;20125;-69
2023/09/04 10:44:01;;;;;;;121.67;115.13;;;23.10;67.10;;;;;;5009501;28;20461;-69
2023/09/04 10:46:27;;;;;;;131.53;124.13;;;23.10;66.20;;;;;;4992866;28;20041;-70
2023/09/04 10:48:53;;;;;;;148.03;139.87;;;23.20;66.40;;;;;;5007293;28;20498;-69
2023/09/04 10:51:36;;;;;;;177.50;167.00;;;23.20;65.30;;;;;;5006232;28;20048;-69
2023/09/04 10:54:14;;;;;;;142.70;134.73;;;23.20;65.70;;;;;;4997139;28;20516;-69
2023/09/04 10:56:53;;;;;;;159.47;150.23;;;23.20;65.30;;;;;;5011695;28;20041;-69
2023/09/04 10:59:19;;;;;;;169.87;160.20;;;23.20;66.00;;;;;;5019384;28;20045;-69
2023/09/04 11:01:45;;;;;;;125.00;118.17;;;23.20;65.30;;;;;;5008655;28;20452;-69
2023/09/04 11:04:10;;;;;;;153.07;144.13;;;23.20;65.70;;;;;;5011037;28;20033;-69
2023/09/04 11:06:38;;;;;;;166.33;156.70;;;23.30;65.80;;;;;;4997534;28;20042;-69
2023/09/04 11:09:05;;;;;;;153.07;144.47;;;23.40;65.20;;;;;;5012203;28;20057;-69
2023/09/04 11:11:31;;;;;;;119.47;112.83;;;23.50;65.00;;;;;;5012202;28;20048;-69
2023/09/04 11:14:02;;;;;;;143.80;135.33;;;23.50;65.20;;;;;;5014214;28;20097;-69
2023/09/04 11:16:36;;;;;;;151.57;143.17;;;23.70;65.40;;;;;;5018385;28;20061;-69
2023/09/04 11:19:07;;;;;;;153.93;145.13;;;23.80;63.60;;;;;;5016720;28;20421;-69
2023/09/04 11:21:35;;;;;;;163.93;154.23;;;23.80;64.40;;;;;;5014618;28;20041;-69
2023/09/04 11:24:02;;;;;;;163.63;154.30;;;24.00;63.90;;;;;;5014805;28;20098;-69
2023/09/04 11:26:29;;;;;;;188.70;177.63;;;24.00;62.80;;;;;;5014110;28;20041;-69
2023/09/04 11:28:59;;;;;;;194.33;183.07;;;24.10;63.50;;;;;;4999677;28;20048;-69
2023/09/04 11:31:26;;;;;;;179.93;169.73;;;24.20;63.50;;;;;;5023554;28;20104;-69
2023/09/04 11:33:53;;;;;;;164.97;155.37;;;24.20;62.30;;;;;;5026474;28;20203;-69
2023/09/04 11:36:18;;;;;;;168.23;158.13;;;24.30;62.80;;;;;;5016051;28;20037;-69
2023/09/04 11:38:44;;;;;;;174.57;163.93;;;24.30;61.50;;;;;;5014761;28;20547;-69
2023/09/04 11:41:20;;;;;;;161.37;152.30;;;24.40;61.90;;;;;;5011180;28;20029;-69
2023/09/04 11:43:46;;;;;;;172.77;162.87;;;24.60;61.10;;;;;;5013587;28;20052;-69
2023/09/04 11:46:12;;;;;;;225.17;211.80;;;24.70;61.40;;;;;;5008414;28;20086;-69
2023/09/04 11:48:38;;;;;;;171.83;161.73;;;24.70;60.20;;;;;;5004846;28;20050;-69
2023/09/04 11:51:04;;;;;;;190.00;178.47;;;24.70;60.30;;;;;;5032831;28;20040;-69
2023/09/04 11:53:31;;;;;;;191.60;180.30;;;24.70;59.70;;;;;;5019387;28;20048;-69
2023/09/04 11:55:57;;;;;;;208.27;195.70;;;24.70;59.50;;;;;;5014067;28;20049;-69
2023/09/04 11:58:23;;;;;;;225.23;211.60;;;24.70;59.40;;;;;;5018145;28;20389;-69
2023/09/04 12:00:49;;;;;;;180.90;169.90;;;24.70;59.50;;;;;;5013062;28;20037;-69
2023/09/04 12:03:14;;;;;;;193.73;182.63;;;24.70;60.30;;;;;;5012961;28;20043;-69
2023/09/04 12:05:41;;;;;;;152.20;142.97;;;24.70;59.80;;;;;;5013896;28;20042;-69
2023/09/04 12:08:07;;;;;;;176.37;165.70;;;24.70;60.00;;;;;;5014548;28;20497;-69
2023/09/04 12:10:34;;;;;;;171.70;161.13;;;24.70;59.70;;;;;;5013939;28;20048;-69
2023/09/04 12:13:01;;;;;;;165.63;155.70;;;24.70;59.60;;;;;;5025453;28;20066;-69
2023/09/04 12:15:33;;;;;;;177.03;166.43;;;24.70;59.00;;;;;;5016379;28;20053;-69
2023/09/04 12:18:04;;;;;;;169.63;159.57;;;24.80;59.00;;;;;;5001337;28;20054;-69
2023/09/04 12:20:41;;;;;;;186.93;175.63;;;24.80;59.00;;;;;;5025031;28;20084;-69
2023/09/04 12:23:07;;;;;;;206.80;194.03;;;24.90;58.20;;;;;;5028330;28;20049;-69
2023/09/04 12:25:35;;;;;;;192.47;181.07;;;24.90;58.30;;;;;;5019237;28;20048;-69